createdAt,value
2022-09-01T00:00:03.139Z,1.00
2022-09-01T00:02:32.200Z,1.10
2022-09-01T00:05:04.755Z,1.20
2022-09-01T00:07:34.672Z,0.90
2022-09-01T00:10:03.455Z,1.10
2022-09-01T00:12:31.897Z,1.10
2022-09-01T00:15:00.730Z,1.13
2022-09-01T00:17:30.463Z,1.20
2022-09-01T00:19:58.913Z,1.00
2022-09-01T00:22:29.798Z,1.00
2022-09-01T00:24:58.298Z,1.00
2022-09-01T00:27:27.924Z,1.00
2022-09-01T00:29:59.512Z,1.10
2022-09-01T00:32:28.149Z,1.00
2022-09-01T00:34:56.660Z,1.20
2022-09-01T00:37:25.080Z,0.90
2022-09-01T00:39:54.902Z,1.10
2022-09-01T00:42:23.301Z,1.10
2022-09-01T00:44:51.748Z,1.20
2022-09-01T00:47:20.416Z,1.20
2022-09-01T00:49:51.340Z,1.17
2022-09-01T00:52:22.587Z,1.10
2022-09-01T00:54:52.573Z,1.17
2022-09-01T00:57:22.742Z,1.10
2022-09-01T00:59:53.255Z,1.23
2022-09-01T01:02:22.244Z,1.20
2022-09-01T01:04:52.886Z,1.20
2022-09-01T01:07:23.029Z,1.17
2022-09-01T01:09:52.280Z,1.40
2022-09-01T01:12:22.111Z,0.90
2022-09-01T01:14:51.509Z,1.17
2022-09-01T01:17:20.391Z,1.07
2022-09-01T01:20:07.807Z,1.30
2022-09-01T01:22:59.240Z,1.43
2022-09-01T01:25:29.084Z,1.43
2022-09-01T01:28:05.594Z,1.00
2022-09-01T01:30:37.064Z,1.10
2022-09-01T01:33:05.877Z,1.10
2022-09-01T01:35:35.026Z,1.33
2022-09-01T01:38:07.442Z,1.20
2022-09-01T01:40:37.260Z,0.90
2022-09-01T01:43:06.143Z,1.20
2022-09-01T01:45:34.590Z,1.10
2022-09-01T01:48:10.717Z,1.20
2022-09-01T01:50:39.509Z,1.10
2022-09-01T01:53:11.023Z,1.40
2022-09-01T01:55:43.928Z,1.20
2022-09-01T01:58:15.056Z,1.03
2022-09-01T02:00:44.754Z,1.20
2022-09-01T02:03:17.296Z,1.30
2022-09-01T02:05:45.779Z,1.10
2022-09-01T02:08:15.659Z,1.10
2022-09-01T02:10:46.498Z,1.30
2022-09-01T02:13:16.864Z,1.00
2022-09-01T02:15:47.821Z,1.20
2022-09-01T02:18:18.289Z,1.27
2022-09-01T02:20:47.767Z,1.43
2022-09-01T02:23:18.076Z,1.20
2022-09-01T02:26:14.577Z,1.20
2022-09-01T02:28:41.097Z,1.40
2022-09-01T02:31:10.179Z,1.40
2022-09-01T02:33:39.286Z,1.37
2022-09-01T02:36:09.664Z,1.20
2022-09-01T02:38:39.419Z,1.20
2022-09-01T02:41:09.323Z,1.30
2022-09-01T02:43:40.074Z,1.50
2022-09-01T02:46:08.749Z,1.17
2022-09-01T02:48:38.615Z,1.40
2022-09-01T02:51:08.245Z,1.47
2022-09-01T02:53:37.199Z,1.40
2022-09-01T02:56:09.617Z,1.30
2022-09-01T02:58:45.859Z,1.50
2022-09-01T03:01:15.530Z,1.70
2022-09-01T03:03:43.970Z,1.43
2022-09-01T03:06:12.950Z,1.40
2022-09-01T03:08:41.348Z,1.47
2022-09-01T03:11:13.305Z,1.33
2022-09-01T03:13:43.990Z,1.60
2022-09-01T03:16:12.582Z,1.80
2022-09-01T03:18:41.062Z,1.80
2022-09-01T03:21:09.953Z,1.50
2022-09-01T03:23:39.153Z,1.50
2022-09-01T03:26:07.742Z,1.43
2022-09-01T03:28:37.731Z,1.40
2022-09-01T03:31:09.074Z,1.53
2022-09-01T03:33:37.719Z,1.50
2022-09-01T03:36:14.979Z,1.53
2022-09-01T03:38:44.437Z,1.70
2022-09-01T03:41:13.493Z,1.60
2022-09-01T03:43:46.899Z,1.60
2022-09-01T03:46:20.426Z,1.67
2022-09-01T03:48:50.880Z,1.60
2022-09-01T03:51:20.760Z,1.93
2022-09-01T03:53:49.181Z,1.70
2022-09-01T03:56:17.610Z,1.50
2022-09-01T03:58:47.441Z,1.57
2022-09-01T04:01:17.659Z,1.87
2022-09-01T04:03:49.052Z,1.50
2022-09-01T04:06:19.452Z,1.40
2022-09-01T04:08:47.979Z,1.60
2022-09-01T04:11:18.729Z,1.60
2022-09-01T04:13:48.258Z,1.80
2022-09-01T04:16:39.714Z,1.77
2022-09-01T04:19:16.114Z,1.67
2022-09-01T04:21:45.103Z,1.70
2022-09-01T04:24:15.467Z,1.80
2022-09-01T04:26:48.246Z,1.80
2022-09-01T04:29:18.748Z,2.10
2022-09-01T04:31:53.649Z,1.60
2022-09-01T04:34:22.534Z,2.00
2022-09-01T04:36:54.221Z,1.90
2022-09-01T04:39:23.411Z,1.83
2022-09-01T04:41:52.714Z,1.90
2022-09-01T04:44:22.251Z,1.60
2022-09-01T04:46:52.136Z,2.03
2022-09-01T04:49:23.743Z,1.83
2022-09-01T04:51:54.225Z,2.03
2022-09-01T04:54:23.663Z,2.03
2022-09-01T04:56:55.117Z,2.33
2022-09-01T04:59:27.204Z,1.90
2022-09-01T05:01:57.677Z,1.77
2022-09-01T05:04:28.232Z,1.90
2022-09-01T05:07:01.075Z,1.80
2022-09-01T05:09:30.323Z,1.90
2022-09-01T05:12:12.373Z,2.10
2022-09-01T05:14:48.653Z,2.23
2022-09-01T05:17:18.763Z,1.97
2022-09-01T05:19:48.677Z,2.10
2022-09-01T05:22:17.821Z,2.13
2022-09-01T05:24:46.877Z,1.97
2022-09-01T05:27:16.102Z,2.00
2022-09-01T05:29:45.884Z,1.90
2022-09-01T05:32:14.794Z,2.00
2022-09-01T05:34:46.196Z,2.10
2022-09-01T05:37:15.073Z,1.90
2022-09-01T05:39:43.526Z,2.10
2022-09-01T05:42:12.078Z,2.07
2022-09-01T05:44:44.077Z,2.50
2022-09-01T05:47:20.370Z,2.00
2022-09-01T05:49:53.675Z,2.70
2022-09-01T05:52:26.279Z,2.40
2022-09-01T05:54:55.604Z,2.20
2022-09-01T05:57:34.621Z,2.57
2022-09-01T06:00:04.033Z,2.20
2022-09-01T06:02:33.900Z,2.23
2022-09-01T06:05:03.785Z,2.30
2022-09-01T06:07:32.171Z,2.40
2022-09-01T06:10:00.606Z,2.20
2022-09-01T06:12:29.116Z,2.13
2022-09-01T06:14:58.345Z,1.80
2022-09-01T06:17:29.654Z,2.20
2022-09-01T06:19:58.633Z,2.03
2022-09-01T06:22:29.946Z,2.00
2022-09-01T06:25:02.363Z,2.20
2022-09-01T06:27:31.381Z,2.10
2022-09-01T06:29:59.794Z,2.17
2022-09-01T06:32:28.967Z,2.10
2022-09-01T06:35:00.485Z,1.90
2022-09-01T06:37:30.824Z,1.90
2022-09-01T06:39:59.231Z,1.87
2022-09-01T06:42:28.348Z,1.60
2022-09-01T06:44:56.779Z,1.70
2022-09-01T06:47:28.611Z,1.80
2022-09-01T06:49:58.949Z,1.53
2022-09-01T06:52:28.189Z,1.53
2022-09-01T06:54:58.338Z,1.93
2022-09-01T07:03:09.501Z,1.50
2022-09-01T07:08:29.077Z,1.77
2022-09-01T07:16:51.876Z,1.40
2022-09-01T07:19:21.595Z,1.60
2022-09-01T07:24:40.196Z,1.40
2022-09-01T07:27:11.001Z,1.50
2022-09-01T07:29:41.728Z,1.23
2022-09-01T07:35:00.209Z,1.45
2022-09-01T07:39:57.366Z,1.60
2022-09-01T07:43:16.394Z,1.30
2022-09-01T07:45:48.021Z,1.40
2022-09-01T07:48:36.655Z,1.60
2022-09-01T07:53:57.750Z,1.65
2022-09-01T07:56:26.775Z,1.63
2022-09-01T07:58:56.842Z,1.50
2022-09-01T08:01:26.308Z,1.65
2022-09-01T08:03:55.628Z,1.75
2022-09-01T08:06:27.877Z,1.67
2022-09-01T08:08:57.546Z,1.60
2022-09-01T08:11:51.496Z,1.50
2022-09-01T08:14:18.779Z,1.60
2022-09-01T08:16:54.909Z,1.30
2022-09-01T08:19:23.780Z,1.40
2022-09-01T08:21:52.260Z,1.50
2022-09-01T08:24:21.968Z,1.40
2022-09-01T08:26:50.407Z,1.33
2022-09-01T08:29:20.172Z,1.23
2022-09-01T08:31:48.817Z,1.30
2022-09-01T08:34:17.332Z,1.45
2022-09-01T08:36:46.327Z,1.50
2022-09-01T08:39:14.689Z,1.30
2022-09-01T08:41:47.085Z,1.40
2022-09-01T08:44:23.032Z,1.33
2022-09-01T08:46:57.214Z,1.60
2022-09-01T08:49:27.562Z,1.38
2022-09-01T08:51:59.044Z,1.50
2022-09-01T08:54:34.360Z,1.70
2022-09-01T08:57:05.704Z,1.23
2022-09-01T08:59:35.493Z,1.60
2022-09-01T09:02:08.936Z,1.50
2022-09-01T09:04:47.508Z,1.33
2022-09-01T09:07:23.325Z,1.60
2022-09-01T09:09:54.443Z,1.77
2022-09-01T09:12:32.770Z,1.40
2022-09-01T09:15:07.047Z,1.58
2022-09-01T09:17:37.355Z,1.38
2022-09-01T09:20:06.884Z,1.50
2022-09-01T09:22:35.736Z,1.50
2022-09-01T09:25:08.352Z,1.58
2022-09-01T09:27:38.253Z,1.35
2022-09-01T09:30:11.763Z,1.60
2022-09-01T09:33:24.859Z,1.42
2022-09-01T09:35:40.550Z,1.50
2022-09-01T09:38:21.689Z,1.20
2022-09-01T09:41:17.247Z,1.10
2022-09-01T09:43:48.479Z,1.13
2022-09-01T09:46:26.611Z,1.30
2022-09-01T09:49:12.543Z,1.40
2022-09-01T09:51:42.364Z,1.20
2022-09-01T09:54:15.381Z,1.10
2022-09-01T09:56:45.642Z,0.80
2022-09-01T09:59:39.893Z,1.17
2022-09-01T10:02:27.369Z,0.90
2022-09-01T10:04:57.275Z,1.00
2022-09-01T10:07:30.802Z,1.05
2022-09-01T10:10:01.568Z,1.10
2022-09-01T10:12:30.463Z,1.20
2022-09-01T10:15:05.433Z,1.00
2022-09-01T10:17:40.507Z,1.10
2022-09-01T10:20:13.995Z,1.00
2022-09-01T10:22:42.604Z,0.80
2022-09-01T10:25:16.236Z,1.05
2022-09-01T10:27:47.115Z,1.05
2022-09-01T10:30:19.850Z,1.00
2022-09-01T10:32:55.677Z,1.15
2022-09-01T10:35:26.773Z,0.90
2022-09-01T10:37:57.921Z,1.02
2022-09-01T10:40:43.752Z,0.88
2022-09-01T10:43:36.265Z,1.13
2022-09-01T10:46:44.326Z,1.00
2022-09-01T10:49:35.520Z,0.70
2022-09-01T10:52:11.323Z,0.90
2022-09-01T10:55:06.122Z,0.93
2022-09-01T10:57:42.784Z,0.75
2022-09-01T11:00:37.931Z,0.73
2022-09-01T11:03:32.838Z,0.80
2022-09-01T11:06:13.231Z,0.60
2022-09-01T11:08:50.729Z,0.90
2022-09-01T11:11:28.723Z,0.70
2022-09-01T11:13:58.901Z,0.80
2022-09-01T11:16:50.874Z,0.68
2022-09-01T11:19:26.327Z,0.90
2022-09-01T11:22:05.813Z,0.70
2022-09-01T11:25:00.435Z,0.82
2022-09-01T11:27:54.258Z,0.80
2022-09-01T11:30:24.357Z,0.75
2022-09-01T11:33:04.842Z,0.90
2022-09-01T11:35:33.822Z,0.60
2022-09-01T11:38:05.115Z,0.80
2022-09-01T11:40:35.729Z,0.50
2022-09-01T11:43:06.498Z,0.90
2022-09-01T11:45:46.005Z,0.65
2022-09-01T11:48:15.381Z,0.60
2022-09-01T11:50:44.090Z,0.82
2022-09-01T11:53:15.288Z,0.90
2022-09-01T11:55:46.134Z,0.50
2022-09-01T11:58:17.952Z,0.80
2022-09-01T12:00:47.535Z,0.63
2022-09-01T12:03:27.188Z,0.60
2022-09-01T12:05:59.557Z,0.60
2022-09-01T12:08:30.594Z,0.80
2022-09-01T12:11:06.345Z,0.60
2022-09-01T12:13:34.957Z,0.82
2022-09-01T12:16:17.889Z,0.60
2022-09-01T12:18:48.293Z,0.63
2022-09-01T12:21:21.184Z,0.50
2022-09-01T12:23:49.624Z,0.80
2022-09-01T12:26:20.929Z,0.52
2022-09-01T12:28:49.944Z,0.55
2022-09-01T12:31:19.059Z,0.88
2022-09-01T12:33:47.774Z,1.50
2022-09-01T12:36:17.538Z,0.85
2022-09-01T12:38:45.970Z,0.60
2022-09-01T12:41:33.901Z,0.57
2022-09-01T12:44:17.267Z,0.60
2022-09-01T12:46:46.913Z,0.60
2022-09-01T12:49:21.987Z,0.47
2022-09-01T12:51:51.059Z,0.40
2022-09-01T12:54:26.894Z,0.50
2022-09-01T12:56:58.680Z,0.70
2022-09-01T12:59:37.219Z,0.60
2022-09-01T13:02:24.754Z,0.82
2022-09-01T13:04:53.241Z,0.90
2022-09-01T13:07:21.671Z,0.65
2022-09-01T13:09:50.134Z,0.70
2022-09-01T13:12:21.931Z,0.70
2022-09-01T13:14:50.807Z,0.55
2022-09-01T13:17:21.692Z,0.60
2022-09-01T13:19:50.056Z,0.70
2022-09-01T13:22:18.492Z,0.50
2022-09-01T13:24:46.864Z,0.63
2022-09-01T13:27:22.697Z,0.60
2022-09-01T13:29:53.402Z,2.90
2022-09-01T13:32:22.795Z,1.00
2022-09-01T13:34:53.358Z,0.88
2022-09-01T13:37:26.183Z,0.80
2022-09-01T13:39:54.663Z,0.55
2022-09-01T13:42:25.493Z,0.52
2022-09-01T13:44:58.524Z,0.57
2022-09-01T13:47:29.286Z,0.73
2022-09-01T13:50:07.842Z,0.70
2022-09-01T13:52:37.383Z,0.80
2022-09-01T13:55:06.492Z,0.60
2022-09-01T13:57:36.640Z,0.60
2022-09-01T14:00:10.805Z,0.50
2022-09-01T14:02:39.504Z,0.88
2022-09-01T14:05:08.302Z,0.90
2022-09-01T14:07:37.201Z,0.73
2022-09-01T14:10:07.745Z,0.60
2022-09-01T14:12:36.801Z,0.85
2022-09-01T14:15:12.157Z,0.60
2022-09-01T14:17:43.579Z,0.98
2022-09-01T14:20:14.420Z,1.10
2022-09-01T14:22:42.991Z,0.82
2022-09-01T14:25:12.156Z,1.15
2022-09-01T14:27:42.259Z,0.63
2022-09-01T14:30:15.878Z,0.68
2022-09-01T14:32:44.787Z,0.65
2022-09-01T14:35:13.832Z,0.75
2022-09-01T14:37:42.334Z,0.50
2022-09-01T14:40:16.814Z,0.70
2022-09-01T14:42:46.621Z,0.50
2022-09-01T14:45:18.619Z,0.77
2022-09-01T14:47:47.329Z,0.70
2022-09-01T14:50:19.898Z,0.80
2022-09-01T14:52:51.244Z,0.63
2022-09-01T14:55:19.647Z,0.75
2022-09-01T14:57:48.444Z,0.70
2022-09-01T15:00:18.481Z,0.70
2022-09-01T15:02:47.714Z,0.70
2022-09-01T15:05:17.070Z,0.77
2022-09-01T15:07:46.980Z,0.57
2022-09-01T15:10:24.589Z,0.80
2022-09-01T15:12:54.559Z,0.68
2022-09-01T15:15:24.527Z,0.52
2022-09-01T15:17:53.217Z,0.68
2022-09-01T15:20:39.629Z,0.68
2022-09-01T15:23:08.074Z,0.65
2022-09-01T15:25:36.519Z,0.63
2022-09-01T15:28:06.158Z,0.75
2022-09-01T15:30:37.027Z,0.80
2022-09-01T15:33:05.880Z,0.55
2022-09-01T15:35:34.316Z,0.70
2022-09-01T15:38:02.868Z,0.82
2022-09-01T15:40:31.315Z,0.70
2022-09-01T15:43:00.171Z,0.73
2022-09-01T15:45:29.995Z,0.70
2022-09-01T15:47:59.825Z,0.73
2022-09-01T15:50:28.553Z,0.50
2022-09-01T15:52:58.703Z,0.60
2022-09-01T15:55:28.067Z,0.70
2022-09-01T15:57:56.670Z,0.68
2022-09-01T16:00:26.533Z,0.70
2022-09-01T16:02:56.614Z,0.70
2022-09-01T16:05:27.421Z,0.77
2022-09-01T16:08:09.820Z,0.70
2022-09-01T16:10:40.069Z,0.63
2022-09-01T16:13:08.839Z,0.70
2022-09-01T16:15:43.034Z,0.55
2022-09-01T16:18:19.151Z,0.70
2022-09-01T16:20:55.070Z,0.70
2022-09-01T16:23:24.647Z,0.65
2022-09-01T16:25:53.696Z,0.52
2022-09-01T16:28:28.471Z,0.80
2022-09-01T16:31:00.337Z,0.60
2022-09-01T16:33:28.866Z,0.77
2022-09-01T16:36:06.432Z,0.60
2022-09-01T16:38:39.391Z,0.60
2022-09-01T16:41:13.874Z,0.68
2022-09-01T16:43:47.123Z,0.70
2022-09-01T16:46:20.774Z,0.70
2022-09-01T16:48:54.830Z,0.80
2022-09-01T16:51:29.651Z,0.60
2022-09-01T16:54:05.478Z,0.68
2022-09-01T16:56:34.712Z,0.70
2022-09-01T16:59:08.155Z,0.82
2022-09-01T17:01:42.061Z,0.60
2022-09-01T17:04:17.836Z,0.65
2022-09-01T17:06:52.337Z,0.70
2022-09-01T17:09:22.922Z,0.55
2022-09-01T17:11:53.604Z,0.70
2022-09-01T17:14:27.940Z,0.68
2022-09-01T17:17:01.153Z,0.73
2022-09-01T17:19:30.191Z,0.70
2022-09-01T17:22:05.425Z,0.70
2022-09-01T17:24:38.642Z,0.77
2022-09-01T17:27:10.988Z,0.60
2022-09-01T17:29:43.564Z,0.70
2022-09-01T17:32:14.863Z,0.68
2022-09-01T17:34:46.932Z,0.60
2022-09-01T17:37:23.028Z,0.70
2022-09-01T17:40:01.652Z,1.00
2022-09-01T17:42:33.728Z,1.10
2022-09-01T17:45:10.118Z,0.70
2022-09-01T17:47:46.306Z,0.88
2022-09-01T17:50:16.996Z,0.90
2022-09-01T17:52:53.882Z,0.70
2022-09-01T17:55:29.287Z,0.82
2022-09-01T17:58:00.039Z,0.80
2022-09-01T18:00:29.380Z,0.63
2022-09-01T18:03:18.765Z,0.73
2022-09-01T18:05:47.899Z,0.50
2022-09-01T18:08:29.960Z,0.70
2022-09-01T18:11:00.322Z,0.50
2022-09-01T18:13:51.665Z,0.80
2022-09-01T18:16:21.239Z,0.60
2022-09-01T18:18:51.182Z,0.50
2022-09-01T18:21:21.446Z,0.65
2022-09-01T18:23:53.263Z,0.70
2022-09-01T18:26:24.971Z,0.63
2022-09-01T18:28:54.814Z,0.77
2022-09-01T18:31:28.280Z,0.60
2022-09-01T18:34:00.804Z,0.60
2022-09-01T18:36:34.928Z,0.70
2022-09-01T18:39:07.435Z,0.70
2022-09-01T18:41:39.654Z,0.65
2022-09-01T18:44:18.328Z,0.60
2022-09-01T18:46:49.733Z,0.63
2022-09-01T18:49:23.617Z,0.73
2022-09-01T18:52:01.243Z,0.90
2022-09-01T18:54:43.376Z,0.63
2022-09-01T18:57:14.386Z,0.80
2022-09-01T18:59:52.586Z,0.52
2022-09-01T19:02:27.028Z,0.80
2022-09-01T19:04:59.410Z,0.70
2022-09-01T19:07:30.272Z,0.50
2022-09-01T19:10:05.021Z,0.90
2022-09-01T19:12:36.794Z,0.77
2022-09-01T19:15:08.714Z,1.08
2022-09-01T19:17:52.540Z,0.70
2022-09-01T19:20:26.824Z,0.82
2022-09-01T19:22:58.710Z,0.90
2022-09-01T19:25:37.093Z,0.55
2022-09-01T19:28:08.860Z,0.82
2022-09-01T19:30:42.125Z,0.80
2022-09-01T19:33:13.418Z,0.85
2022-09-01T19:35:42.858Z,0.88
2022-09-01T19:38:14.902Z,0.80
2022-09-01T19:40:45.331Z,0.65
2022-09-01T19:43:17.852Z,0.85
2022-09-01T19:45:56.316Z,0.80
2022-09-01T19:48:28.394Z,0.65
2022-09-01T19:50:58.746Z,0.60
2022-09-01T19:53:34.508Z,0.80
2022-09-01T19:56:08.315Z,0.88
2022-09-01T19:58:43.185Z,0.93
2022-09-01T20:01:13.126Z,0.80
2022-09-01T20:03:42.885Z,0.77
2022-09-01T20:06:12.974Z,0.70
2022-09-01T20:08:43.747Z,0.70
2022-09-01T20:11:16.947Z,0.67
2022-09-01T20:14:02.696Z,0.47
2022-09-01T20:16:33.719Z,0.90
2022-09-01T20:19:04.065Z,0.85
2022-09-01T20:21:32.462Z,0.80
2022-09-01T20:24:03.885Z,0.63
2022-09-01T20:26:39.090Z,0.70
2022-09-01T20:29:09.404Z,0.70
2022-09-01T20:31:39.613Z,0.70
2022-09-01T20:34:09.996Z,0.52
2022-09-01T20:36:41.094Z,0.80
2022-09-01T20:39:30.625Z,0.80
2022-09-01T20:42:03.299Z,0.80
2022-09-01T20:44:36.405Z,0.90
2022-09-01T20:47:06.189Z,0.70
2022-09-01T20:49:36.376Z,0.90
2022-09-01T20:52:09.012Z,0.93
2022-09-01T20:54:41.779Z,1.00
2022-09-01T20:57:20.698Z,0.73
2022-09-01T20:59:51.312Z,0.90
2022-09-01T21:02:34.598Z,0.90
2022-09-01T21:05:06.783Z,0.90
2022-09-01T21:07:37.679Z,0.63
2022-09-01T21:10:11.151Z,0.80
2022-09-01T21:12:45.246Z,1.03
2022-09-01T21:15:22.789Z,1.00
2022-09-01T21:17:54.248Z,0.80
2022-09-01T21:20:26.366Z,0.93
2022-09-01T21:22:56.473Z,0.80
2022-09-01T21:25:24.988Z,0.93
2022-09-01T21:27:55.839Z,1.10
2022-09-01T21:30:25.303Z,1.00
2022-09-01T21:32:53.998Z,0.63
2022-09-01T21:35:23.072Z,0.80
2022-09-01T21:37:51.753Z,0.87
2022-09-01T21:40:22.048Z,0.90
2022-09-01T21:42:51.710Z,0.80
2022-09-01T21:45:21.577Z,0.77
2022-09-01T21:47:50.670Z,1.00
2022-09-01T21:50:20.501Z,0.87
2022-09-01T21:52:49.077Z,1.10
2022-09-01T21:55:22.563Z,0.90
2022-09-01T21:57:51.850Z,1.03
2022-09-01T22:00:22.821Z,0.97
2022-09-01T22:02:51.698Z,0.80
2022-09-01T22:05:20.228Z,1.10
2022-09-01T22:07:49.080Z,0.97
2022-09-01T22:10:18.475Z,0.90
2022-09-01T22:12:47.696Z,0.90
2022-09-01T22:15:17.793Z,0.90
2022-09-01T22:17:48.149Z,0.90
2022-09-01T22:20:22.454Z,1.10
2022-09-01T22:22:51.391Z,1.10
2022-09-01T22:25:21.113Z,1.20
2022-09-01T22:27:49.572Z,1.23
2022-09-01T22:30:19.316Z,1.00
2022-09-01T22:32:49.106Z,1.00
2022-09-01T22:35:18.355Z,0.80
2022-09-01T22:37:46.873Z,1.10
2022-09-01T22:40:16.659Z,0.97
2022-09-01T22:42:45.443Z,1.20
2022-09-01T22:45:15.117Z,1.07
2022-09-01T22:47:43.938Z,1.10
2022-09-01T22:50:13.935Z,0.93
2022-09-01T22:52:43.760Z,0.90
2022-09-01T22:55:13.748Z,0.87
2022-09-01T22:57:42.226Z,1.00
2022-09-01T23:00:11.518Z,1.00
2022-09-01T23:02:39.996Z,0.90
2022-09-01T23:05:08.973Z,1.10
2022-09-01T23:07:39.607Z,0.80
2022-09-01T23:10:09.452Z,0.90
2022-09-01T23:12:37.875Z,0.90
2022-09-01T23:15:07.063Z,1.10
2022-09-01T23:17:36.743Z,0.90
2022-09-01T23:20:06.854Z,1.00
2022-09-01T23:22:35.315Z,1.03
2022-09-01T23:25:05.174Z,1.20
2022-09-01T23:27:33.701Z,0.93
2022-09-01T23:30:02.139Z,0.90
2022-09-01T23:32:30.892Z,0.83
2022-09-01T23:34:59.867Z,0.90
2022-09-01T23:37:28.747Z,1.00
2022-09-01T23:39:57.530Z,1.00
2022-09-01T23:42:27.323Z,0.97
2022-09-01T23:44:55.767Z,1.10
2022-09-01T23:47:24.175Z,0.93
2022-09-01T23:49:52.648Z,0.90
2022-09-01T23:52:21.071Z,0.90
2022-09-01T23:54:49.564Z,0.90
2022-09-01T23:57:19.077Z,1.07
2022-09-01T23:59:49.112Z,1.00
